sensor_id;sensor_type;location;lat;lon;timestamp;temperature;humidity
23873;DHT22;42884;50.718;4.630;2024-03-08T00:01:13;5.50;99.90
23873;DHT22;42884;50.718;4.630;2024-03-08T00:03:38;5.50;99.90
23873;DHT22;42884;50.718;4.630;2024-03-08T00:06:06;5.60;99.90
23873;DHT22;42884;50.718;4.630;2024-03-08T00:08:31;5.60;99.90
23873;DHT22;42884;50.718;4.630;2024-03-08T00:10:57;5.60;99.90
23873;DHT22;42884;50.718;4.630;2024-03-08T00:13:23;5.60;99.90
23873;DHT22;42884;50.718;4.630;2024-03-08T00:15:50;5.60;99.90
23873;DHT22;42884;50.718;4.630;2024-03-08T00:18:16;5.50;99.90
23873;DHT22;42884;50.718;4.630;2024-03-08T00:20:42;5.50;99.90
23873;DHT22;42884;50.718;4.630;2024-03-08T00:23:09;5.60;99.90
23873;DHT22;42884;50.718;4.630;2024-03-08T00:25:36;5.60;99.90
23873;DHT22;42884;50.718;4.630;2024-03-08T00:28:02;5.60;99.90
23873;DHT22;42884;50.718;4.630;2024-03-08T00:30:30;5.60;99.90
23873;DHT22;42884;50.718;4.630;2024-03-08T00:32:56;5.40;99.90
23873;DHT22;42884;50.718;4.630;2024-03-08T00:35:22;5.40;99.90
23873;DHT22;42884;50.718;4.630;2024-03-08T00:37:48;5.30;99.90
23873;DHT22;42884;50.718;4.630;2024-03-08T00:40:14;5.40;99.90
23873;DHT22;42884;50.718;4.630;2024-03-08T00:42:40;5.30;99.90
23873;DHT22;42884;50.718;4.630;2024-03-08T00:45:08;5.40;99.90
23873;DHT22;42884;50.718;4.630;2024-03-08T00:47:35;5.40;99.90
23873;DHT22;42884;50.718;4.630;2024-03-08T00:50:01;5.40;99.90
23873;DHT22;42884;50.718;4.630;2024-03-08T00:52:29;5.40;99.90
23873;DHT22;42884;50.718;4.630;2024-03-08T00:54:55;5.50;99.90
23873;DHT22;42884;50.718;4.630;2024-03-08T00:57:21;5.50;99.90
23873;DHT22;42884;50.718;4.630;2024-03-08T00:59:47;5.50;99.90
23873;DHT22;42884;50.718;4.630;2024-03-08T01:02:14;5.50;99.90
23873;DHT22;42884;50.718;4.630;2024-03-08T01:04:39;5.30;99.90
23873;DHT22;42884;50.718;4.630;2024-03-08T01:07:05;5.30;99.90
23873;DHT22;42884;50.718;4.630;2024-03-08T01:09:31;5.20;99.90
23873;DHT22;42884;50.718;4.630;2024-03-08T01:11:57;5.20;99.90
23873;DHT22;42884;50.718;4.630;2024-03-08T01:14:23;5.20;99.90
23873;DHT22;42884;50.718;4.630;2024-03-08T01:16:51;5.20;99.90
23873;DHT22;42884;50.718;4.630;2024-03-08T01:19:17;5.20;99.90
23873;DHT22;42884;50.718;4.630;2024-03-08T01:21:43;5.30;99.90
23873;DHT22;42884;50.718;4.630;2024-03-08T01:24:09;5.30;99.90
23873;DHT22;42884;50.718;4.630;2024-03-08T01:26:34;5.20;99.90
23873;DHT22;42884;50.718;4.630;2024-03-08T01:29:01;5.20;99.90
23873;DHT22;42884;50.718;4.630;2024-03-08T01:31:29;5.20;99.90
23873;DHT22;42884;50.718;4.630;2024-03-08T01:33:55;5.20;99.90
23873;DHT22;42884;50.718;4.630;2024-03-08T01:36:21;5.20;99.90
23873;DHT22;42884;50.718;4.630;2024-03-08T01:38:47;5.20;99.90
23873;DHT22;42884;50.718;4.630;2024-03-08T01:41:13;5.10;99.90
23873;DHT22;42884;50.718;4.630;2024-03-08T01:43:39;5.10;99.90
23873;DHT22;42884;50.718;4.630;2024-03-08T01:46:05;5.20;99.90
23873;DHT22;42884;50.718;4.630;2024-03-08T01:48:34;5.00;99.90
23873;DHT22;42884;50.718;4.630;2024-03-08T01:50:59;4.90;99.90
23873;DHT22;42884;50.718;4.630;2024-03-08T01:53:27;4.90;99.90
23873;DHT22;42884;50.718;4.630;2024-03-08T01:55:56;4.90;99.90
23873;DHT22;42884;50.718;4.630;2024-03-08T01:58:23;4.90;99.90
23873;DHT22;42884;50.718;4.630;2024-03-08T02:00:49;5.00;99.90
23873;DHT22;42884;50.718;4.630;2024-03-08T02:03:18;4.90;99.90
23873;DHT22;42884;50.718;4.630;2024-03-08T02:05:44;4.90;99.90
23873;DHT22;42884;50.718;4.630;2024-03-08T02:08:10;4.90;99.90
23873;DHT22;42884;50.718;4.630;2024-03-08T02:10:45;4.90;99.90
23873;DHT22;42884;50.718;4.630;2024-03-08T02:13:11;4.80;99.90
23873;DHT22;42884;50.718;4.630;2024-03-08T02:15:54;4.80;99.90
23873;DHT22;42884;50.718;4.630;2024-03-08T02:18:21;4.90;99.90
23873;DHT22;42884;50.718;4.630;2024-03-08T02:20:57;4.80;99.90
23873;DHT22;42884;50.718;4.630;2024-03-08T02:23:24;4.80;99.90
23873;DHT22;42884;50.718;4.630;2024-03-08T02:25:54;4.70;99.90
23873;DHT22;42884;50.718;4.630;2024-03-08T02:28:20;4.70;99.90
23873;DHT22;42884;50.718;4.630;2024-03-08T02:30:46;4.70;99.90
23873;DHT22;42884;50.718;4.630;2024-03-08T02:33:16;4.70;99.90
23873;DHT22;42884;50.718;4.630;2024-03-08T02:35:43;4.70;99.90
23873;DHT22;42884;50.718;4.630;2024-03-08T02:38:16;4.60;99.90
23873;DHT22;42884;50.718;4.630;2024-03-08T02:40:46;4.70;99.90
23873;DHT22;42884;50.718;4.630;2024-03-08T02:43:13;4.70;99.90
23873;DHT22;42884;50.718;4.630;2024-03-08T02:45:40;4.70;99.90
23873;DHT22;42884;50.718;4.630;2024-03-08T02:48:07;4.70;99.90
23873;DHT22;42884;50.718;4.630;2024-03-08T02:50:33;4.70;99.90
23873;DHT22;42884;50.718;4.630;2024-03-08T02:53:00;4.70;99.90
23873;DHT22;42884;50.718;4.630;2024-03-08T02:55:27;4.60;99.90
23873;DHT22;42884;50.718;4.630;2024-03-08T02:57:52;4.50;99.90
23873;DHT22;42884;50.718;4.630;2024-03-08T03:00:20;4.50;99.90
23873;DHT22;42884;50.718;4.630;2024-03-08T03:02:47;4.40;99.90
23873;DHT22;42884;50.718;4.630;2024-03-08T03:05:13;4.40;99.90
23873;DHT22;42884;50.718;4.630;2024-03-08T03:07:39;4.50;99.90
23873;DHT22;42884;50.718;4.630;2024-03-08T03:10:05;4.50;99.90
23873;DHT22;42884;50.718;4.630;2024-03-08T03:12:32;4.40;99.90
23873;DHT22;42884;50.718;4.630;2024-03-08T03:14:59;4.40;99.90
23873;DHT22;42884;50.718;4.630;2024-03-08T03:17:25;4.40;99.90
23873;DHT22;42884;50.718;4.630;2024-03-08T03:19:52;4.40;99.90
23873;DHT22;42884;50.718;4.630;2024-03-08T03:22:18;4.40;99.90
23873;DHT22;42884;50.718;4.630;2024-03-08T03:24:45;4.40;99.90
23873;DHT22;42884;50.718;4.630;2024-03-08T03:27:14;4.30;99.90
23873;DHT22;42884;50.718;4.630;2024-03-08T03:29:43;4.30;99.90
23873;DHT22;42884;50.718;4.630;2024-03-08T03:32:12;4.20;99.90
23873;DHT22;42884;50.718;4.630;2024-03-08T03:34:38;4.20;99.90
23873;DHT22;42884;50.718;4.630;2024-03-08T03:37:04;4.10;99.90
23873;DHT22;42884;50.718;4.630;2024-03-08T03:39:33;4.10;99.90
23873;DHT22;42884;50.718;4.630;2024-03-08T03:42:02;4.10;99.90
23873;DHT22;42884;50.718;4.630;2024-03-08T03:44:31;4.10;99.90
23873;DHT22;42884;50.718;4.630;2024-03-08T03:46:58;4.10;99.90
23873;DHT22;42884;50.718;4.630;2024-03-08T03:49:23;4.10;99.90
23873;DHT22;42884;50.718;4.630;2024-03-08T03:51:49;4.10;99.90
23873;DHT22;42884;50.718;4.630;2024-03-08T03:54:15;4.20;99.90
23873;DHT22;42884;50.718;4.630;2024-03-08T03:56:41;4.10;99.90
23873;DHT22;42884;50.718;4.630;2024-03-08T03:59:07;4.20;99.90
23873;DHT22;42884;50.718;4.630;2024-03-08T04:01:33;4.10;99.90
23873;DHT22;42884;50.718;4.630;2024-03-08T04:03:59;4.00;99.90
23873;DHT22;42884;50.718;4.630;2024-03-08T04:06:25;4.00;99.90
23873;DHT22;42884;50.718;4.630;2024-03-08T04:08:51;4.00;99.90
23873;DHT22;42884;50.718;4.630;2024-03-08T04:11:16;4.00;99.90
23873;DHT22;42884;50.718;4.630;2024-03-08T04:13:43;4.00;99.90
23873;DHT22;42884;50.718;4.630;2024-03-08T04:16:09;4.00;99.90
23873;DHT22;42884;50.718;4.630;2024-03-08T04:18:37;4.00;99.90
23873;DHT22;42884;50.718;4.630;2024-03-08T04:21:04;3.90;99.90
23873;DHT22;42884;50.718;4.630;2024-03-08T04:23:33;3.90;99.90
23873;DHT22;42884;50.718;4.630;2024-03-08T04:26:01;3.90;99.90
23873;DHT22;42884;50.718;4.630;2024-03-08T04:28:27;3.80;99.90
23873;DHT22;42884;50.718;4.630;2024-03-08T04:30:53;3.90;99.90
23873;DHT22;42884;50.718;4.630;2024-03-08T04:33:20;3.90;99.90
23873;DHT22;42884;50.718;4.630;2024-03-08T04:35:47;3.80;99.90
23873;DHT22;42884;50.718;4.630;2024-03-08T04:38:12;3.80;99.90
23873;DHT22;42884;50.718;4.630;2024-03-08T04:40:38;3.80;99.90
23873;DHT22;42884;50.718;4.630;2024-03-08T04:43:04;3.70;99.90
23873;DHT22;42884;50.718;4.630;2024-03-08T04:45:30;3.80;99.90
23873;DHT22;42884;50.718;4.630;2024-03-08T04:47:56;3.80;99.90
23873;DHT22;42884;50.718;4.630;2024-03-08T04:50:22;3.80;99.90
23873;DHT22;42884;50.718;4.630;2024-03-08T04:52:48;3.70;99.90
23873;DHT22;42884;50.718;4.630;2024-03-08T04:55:14;3.70;99.90
23873;DHT22;42884;50.718;4.630;2024-03-08T04:57:40;3.60;99.90
23873;DHT22;42884;50.718;4.630;2024-03-08T05:00:07;3.70;99.90
23873;DHT22;42884;50.718;4.630;2024-03-08T05:02:37;3.60;99.90
23873;DHT22;42884;50.718;4.630;2024-03-08T05:05:05;3.60;99.90
23873;DHT22;42884;50.718;4.630;2024-03-08T05:07:32;3.60;99.90
23873;DHT22;42884;50.718;4.630;2024-03-08T05:09:59;3.70;99.90
23873;DHT22;42884;50.718;4.630;2024-03-08T05:12:25;3.80;99.90
23873;DHT22;42884;50.718;4.630;2024-03-08T05:14:50;3.80;99.90
23873;DHT22;42884;50.718;4.630;2024-03-08T05:17:16;3.70;99.90
23873;DHT22;42884;50.718;4.630;2024-03-08T05:19:43;3.70;99.90
23873;DHT22;42884;50.718;4.630;2024-03-08T05:22:09;3.80;99.90
23873;DHT22;42884;50.718;4.630;2024-03-08T05:24:35;3.80;99.90
23873;DHT22;42884;50.718;4.630;2024-03-08T05:27:01;3.80;99.90
23873;DHT22;42884;50.718;4.630;2024-03-08T05:29:28;3.70;99.90
23873;DHT22;42884;50.718;4.630;2024-03-08T05:31:54;3.60;99.90
23873;DHT22;42884;50.718;4.630;2024-03-08T05:34:21;3.60;99.90
23873;DHT22;42884;50.718;4.630;2024-03-08T05:36:48;3.50;99.90
23873;DHT22;42884;50.718;4.630;2024-03-08T05:39:16;3.40;99.90
23873;DHT22;42884;50.718;4.630;2024-03-08T05:41:43;3.50;99.90
23873;DHT22;42884;50.718;4.630;2024-03-08T05:44:10;3.50;99.90
23873;DHT22;42884;50.718;4.630;2024-03-08T05:46:36;3.50;99.90
23873;DHT22;42884;50.718;4.630;2024-03-08T05:49:03;3.60;99.90
23873;DHT22;42884;50.718;4.630;2024-03-08T05:51:36;3.60;99.90
23873;DHT22;42884;50.718;4.630;2024-03-08T05:54:11;3.50;99.90
23873;DHT22;42884;50.718;4.630;2024-03-08T05:56:38;3.50;99.90
23873;DHT22;42884;50.718;4.630;2024-03-08T05:59:08;3.50;99.90
23873;DHT22;42884;50.718;4.630;2024-03-08T06:01:34;3.40;99.90
23873;DHT22;42884;50.718;4.630;2024-03-08T06:04:02;3.30;99.90
23873;DHT22;42884;50.718;4.630;2024-03-08T06:06:28;3.30;99.90
23873;DHT22;42884;50.718;4.630;2024-03-08T06:08:55;3.40;99.90
23873;DHT22;42884;50.718;4.630;2024-03-08T06:11:24;3.50;99.90
23873;DHT22;42884;50.718;4.630;2024-03-08T06:13:52;3.50;99.90
23873;DHT22;42884;50.718;4.630;2024-03-08T06:16:25;3.50;99.90
23873;DHT22;42884;50.718;4.630;2024-03-08T06:18:55;3.60;99.90
23873;DHT22;42884;50.718;4.630;2024-03-08T06:21:21;3.60;99.90
23873;DHT22;42884;50.718;4.630;2024-03-08T06:23:48;3.50;99.90
23873;DHT22;42884;50.718;4.630;2024-03-08T06:26:14;3.50;99.90
23873;DHT22;42884;50.718;4.630;2024-03-08T06:28:39;3.30;99.90
23873;DHT22;42884;50.718;4.630;2024-03-08T06:31:05;3.30;99.90
23873;DHT22;42884;50.718;4.630;2024-03-08T06:33:32;3.40;99.90
23873;DHT22;42884;50.718;4.630;2024-03-08T06:35:58;3.30;99.90
23873;DHT22;42884;50.718;4.630;2024-03-08T06:38:24;3.30;99.90
23873;DHT22;42884;50.718;4.630;2024-03-08T06:40:51;3.30;99.90
23873;DHT22;42884;50.718;4.630;2024-03-08T06:43:17;3.30;99.90
23873;DHT22;42884;50.718;4.630;2024-03-08T06:45:47;3.30;99.90
23873;DHT22;42884;50.718;4.630;2024-03-08T06:48:17;3.30;99.90
23873;DHT22;42884;50.718;4.630;2024-03-08T06:50:44;3.40;99.90
23873;DHT22;42884;50.718;4.630;2024-03-08T06:53:11;3.50;99.90
23873;DHT22;42884;50.718;4.630;2024-03-08T06:55:37;3.40;99.90
23873;DHT22;42884;50.718;4.630;2024-03-08T06:58:04;3.40;99.90
23873;DHT22;42884;50.718;4.630;2024-03-08T07:00:29;3.40;99.90
23873;DHT22;42884;50.718;4.630;2024-03-08T07:02:59;3.50;99.90
23873;DHT22;42884;50.718;4.630;2024-03-08T07:05:29;3.60;99.90
23873;DHT22;42884;50.718;4.630;2024-03-08T07:07:56;3.60;99.90
23873;DHT22;42884;50.718;4.630;2024-03-08T07:10:24;3.60;99.90
23873;DHT22;42884;50.718;4.630;2024-03-08T07:12:51;3.70;99.90
23873;DHT22;42884;50.718;4.630;2024-03-08T07:15:16;3.80;99.90
23873;DHT22;42884;50.718;4.630;2024-03-08T07:17:45;3.90;99.90
23873;DHT22;42884;50.718;4.630;2024-03-08T07:20:11;3.90;99.90
23873;DHT22;42884;50.718;4.630;2024-03-08T07:22:37;3.90;99.90
23873;DHT22;42884;50.718;4.630;2024-03-08T07:25:07;3.80;99.90
23873;DHT22;42884;50.718;4.630;2024-03-08T07:27:35;3.80;99.90
23873;DHT22;42884;50.718;4.630;2024-03-08T07:30:02;3.90;99.90
23873;DHT22;42884;50.718;4.630;2024-03-08T07:32:28;4.00;99.90
23873;DHT22;42884;50.718;4.630;2024-03-08T07:34:56;4.10;99.90
23873;DHT22;42884;50.718;4.630;2024-03-08T07:37:21;4.10;99.90
23873;DHT22;42884;50.718;4.630;2024-03-08T07:39:47;4.10;99.90
23873;DHT22;42884;50.718;4.630;2024-03-08T07:42:13;4.30;99.90
23873;DHT22;42884;50.718;4.630;2024-03-08T07:44:39;4.40;99.90
23873;DHT22;42884;50.718;4.630;2024-03-08T07:47:05;4.40;99.90
23873;DHT22;42884;50.718;4.630;2024-03-08T07:49:37;4.50;99.90
23873;DHT22;42884;50.718;4.630;2024-03-08T07:52:04;4.70;99.90
23873;DHT22;42884;50.718;4.630;2024-03-08T07:54:30;4.70;99.90
23873;DHT22;42884;50.718;4.630;2024-03-08T07:56:56;4.80;99.90
23873;DHT22;42884;50.718;4.630;2024-03-08T07:59:22;4.80;99.90
23873;DHT22;42884;50.718;4.630;2024-03-08T08:01:48;5.00;99.90
23873;DHT22;42884;50.718;4.630;2024-03-08T08:04:14;5.00;99.90
23873;DHT22;42884;50.718;4.630;2024-03-08T08:06:43;5.00;99.90
23873;DHT22;42884;50.718;4.630;2024-03-08T08:09:09;5.10;99.90
23873;DHT22;42884;50.718;4.630;2024-03-08T08:11:41;5.20;99.90
23873;DHT22;42884;50.718;4.630;2024-03-08T08:14:09;5.30;99.90
23873;DHT22;42884;50.718;4.630;2024-03-08T08:16:36;5.50;99.90
23873;DHT22;42884;50.718;4.630;2024-03-08T08:19:03;5.40;99.90
23873;DHT22;42884;50.718;4.630;2024-03-08T08:21:34;5.40;99.90
23873;DHT22;42884;50.718;4.630;2024-03-08T08:24:03;5.50;99.90
23873;DHT22;42884;50.718;4.630;2024-03-08T08:26:29;5.60;99.90
23873;DHT22;42884;50.718;4.630;2024-03-08T08:28:54;5.70;99.90
23873;DHT22;42884;50.718;4.630;2024-03-08T08:31:20;5.80;99.90
23873;DHT22;42884;50.718;4.630;2024-03-08T08:33:46;5.90;99.90
23873;DHT22;42884;50.718;4.630;2024-03-08T08:36:13;5.90;99.90
23873;DHT22;42884;50.718;4.630;2024-03-08T08:38:39;5.90;99.90
23873;DHT22;42884;50.718;4.630;2024-03-08T08:41:05;5.90;99.90
23873;DHT22;42884;50.718;4.630;2024-03-08T08:43:31;6.10;99.90
23873;DHT22;42884;50.718;4.630;2024-03-08T08:45:59;6.10;99.90
23873;DHT22;42884;50.718;4.630;2024-03-08T08:48:24;6.20;99.90
23873;DHT22;42884;50.718;4.630;2024-03-08T08:50:50;6.30;99.90
23873;DHT22;42884;50.718;4.630;2024-03-08T08:53:18;6.40;99.90
23873;DHT22;42884;50.718;4.630;2024-03-08T08:55:43;6.50;99.90
23873;DHT22;42884;50.718;4.630;2024-03-08T08:58:11;6.60;99.90
23873;DHT22;42884;50.718;4.630;2024-03-08T09:00:37;6.60;99.90
23873;DHT22;42884;50.718;4.630;2024-03-08T09:03:03;6.70;99.90
23873;DHT22;42884;50.718;4.630;2024-03-08T09:05:29;6.80;99.90
23873;DHT22;42884;50.718;4.630;2024-03-08T09:07:55;6.90;99.90
23873;DHT22;42884;50.718;4.630;2024-03-08T09:10:21;6.90;99.90
23873;DHT22;42884;50.718;4.630;2024-03-08T09:12:47;6.90;99.90
23873;DHT22;42884;50.718;4.630;2024-03-08T09:15:13;6.90;99.90
23873;DHT22;42884;50.718;4.630;2024-03-08T09:17:39;7.00;99.90
23873;DHT22;42884;50.718;4.630;2024-03-08T09:20:06;7.00;99.90
23873;DHT22;42884;50.718;4.630;2024-03-08T09:22:32;7.00;99.90
23873;DHT22;42884;50.718;4.630;2024-03-08T09:24:58;7.10;99.90
23873;DHT22;42884;50.718;4.630;2024-03-08T09:27:24;7.20;99.90
23873;DHT22;42884;50.718;4.630;2024-03-08T09:29:49;7.30;99.90
23873;DHT22;42884;50.718;4.630;2024-03-08T09:32:16;7.30;99.90
23873;DHT22;42884;50.718;4.630;2024-03-08T09:34:42;7.40;99.90
23873;DHT22;42884;50.718;4.630;2024-03-08T09:37:08;7.80;99.90
23873;DHT22;42884;50.718;4.630;2024-03-08T09:39:34;8.30;99.90
23873;DHT22;42884;50.718;4.630;2024-03-08T09:42:03;8.70;99.90
23873;DHT22;42884;50.718;4.630;2024-03-08T09:44:29;8.90;99.90
23873;DHT22;42884;50.718;4.630;2024-03-08T09:46:55;9.60;99.90
23873;DHT22;42884;50.718;4.630;2024-03-08T09:49:22;10.00;99.90
23873;DHT22;42884;50.718;4.630;2024-03-08T09:51:48;10.00;99.90
23873;DHT22;42884;50.718;4.630;2024-03-08T09:54:17;11.00;99.90
23873;DHT22;42884;50.718;4.630;2024-03-08T09:56:43;11.80;99.90
23873;DHT22;42884;50.718;4.630;2024-03-08T09:59:11;12.60;99.90
23873;DHT22;42884;50.718;4.630;2024-03-08T10:01:37;13.00;99.90
23873;DHT22;42884;50.718;4.630;2024-03-08T10:04:04;14.00;99.90
23873;DHT22;42884;50.718;4.630;2024-03-08T10:06:30;15.60;99.90
23873;DHT22;42884;50.718;4.630;2024-03-08T10:08:57;15.80;99.90
23873;DHT22;42884;50.718;4.630;2024-03-08T10:11:23;16.50;99.90
23873;DHT22;42884;50.718;4.630;2024-03-08T10:13:50;16.60;99.90
23873;DHT22;42884;50.718;4.630;2024-03-08T10:16:16;17.20;99.90
23873;DHT22;42884;50.718;4.630;2024-03-08T10:18:47;17.40;99.90
23873;DHT22;42884;50.718;4.630;2024-03-08T10:21:13;17.80;99.90
23873;DHT22;42884;50.718;4.630;2024-03-08T10:23:41;18.10;99.90
23873;DHT22;42884;50.718;4.630;2024-03-08T10:26:12;18.80;99.90
23873;DHT22;42884;50.718;4.630;2024-03-08T10:28:47;19.00;99.90
23873;DHT22;42884;50.718;4.630;2024-03-08T10:31:16;19.40;99.90
23873;DHT22;42884;50.718;4.630;2024-03-08T10:33:42;18.80;99.90
23873;DHT22;42884;50.718;4.630;2024-03-08T10:36:10;18.20;99.90
23873;DHT22;42884;50.718;4.630;2024-03-08T10:38:37;17.70;99.90
23873;DHT22;42884;50.718;4.630;2024-03-08T10:41:06;17.60;99.90
23873;DHT22;42884;50.718;4.630;2024-03-08T10:43:40;18.10;99.90
23873;DHT22;42884;50.718;4.630;2024-03-08T10:46:30;17.90;99.90
23873;DHT22;42884;50.718;4.630;2024-03-08T10:48:58;18.50;99.90
23873;DHT22;42884;50.718;4.630;2024-03-08T10:51:27;18.10;99.90
23873;DHT22;42884;50.718;4.630;2024-03-08T10:53:57;17.80;99.90
23873;DHT22;42884;50.718;4.630;2024-03-08T10:56:24;17.90;99.90
23873;DHT22;42884;50.718;4.630;2024-03-08T11:01:15;18.00;99.90
23873;DHT22;42884;50.718;4.630;2024-03-08T11:06:17;18.90;99.90
23873;DHT22;42884;50.718;4.630;2024-03-08T11:08:47;18.90;99.90
23873;DHT22;42884;50.718;4.630;2024-03-08T11:13:53;17.80;99.90
23873;DHT22;42884;50.718;4.630;2024-03-08T11:18:54;17.30;99.90
23873;DHT22;42884;50.718;4.630;2024-03-08T11:21:20;17.30;99.90
23873;DHT22;42884;50.718;4.630;2024-03-08T11:24:08;16.10;99.90
23873;DHT22;42884;50.718;4.630;2024-03-08T11:26:37;16.60;99.90
23873;DHT22;42884;50.718;4.630;2024-03-08T11:32:16;16.80;99.90
23873;DHT22;42884;50.718;4.630;2024-03-08T11:34:47;16.90;99.90
23873;DHT22;42884;50.718;4.630;2024-03-08T11:37:17;16.40;99.90
23873;DHT22;42884;50.718;4.630;2024-03-08T11:39:53;16.60;99.90
23873;DHT22;42884;50.718;4.630;2024-03-08T11:42:24;16.90;99.90
23873;DHT22;42884;50.718;4.630;2024-03-08T11:44:52;17.20;99.90
23873;DHT22;42884;50.718;4.630;2024-03-08T11:47:18;17.00;99.90
23873;DHT22;42884;50.718;4.630;2024-03-08T11:49:45;17.00;99.90
23873;DHT22;42884;50.718;4.630;2024-03-08T11:52:17;17.10;99.90
23873;DHT22;42884;50.718;4.630;2024-03-08T11:54:56;17.00;99.90
23873;DHT22;42884;50.718;4.630;2024-03-08T11:57:23;17.30;99.90
23873;DHT22;42884;50.718;4.630;2024-03-08T11:59:53;17.80;99.90
23873;DHT22;42884;50.718;4.630;2024-03-08T12:02:19;18.20;99.90
23873;DHT22;42884;50.718;4.630;2024-03-08T12:04:45;18.40;99.90
23873;DHT22;42884;50.718;4.630;2024-03-08T12:07:13;18.40;99.90
23873;DHT22;42884;50.718;4.630;2024-03-08T12:09:42;18.70;99.90
23873;DHT22;42884;50.718;4.630;2024-03-08T12:12:11;18.80;99.90
23873;DHT22;42884;50.718;4.630;2024-03-08T12:14:38;18.90;99.90
23873;DHT22;42884;50.718;4.630;2024-03-08T12:17:04;17.70;99.90
23873;DHT22;42884;50.718;4.630;2024-03-08T12:19:31;18.10;99.90
23873;DHT22;42884;50.718;4.630;2024-03-08T12:22:07;18.00;99.90
23873;DHT22;42884;50.718;4.630;2024-03-08T12:24:34;17.90;99.90
23873;DHT22;42884;50.718;4.630;2024-03-08T12:27:00;17.90;99.90
23873;DHT22;42884;50.718;4.630;2024-03-08T12:29:27;18.00;99.90
23873;DHT22;42884;50.718;4.630;2024-03-08T12:31:58;18.00;99.90
23873;DHT22;42884;50.718;4.630;2024-03-08T12:34:26;18.40;99.90
23873;DHT22;42884;50.718;4.630;2024-03-08T12:36:55;18.50;99.90
23873;DHT22;42884;50.718;4.630;2024-03-08T12:39:22;18.70;99.90
23873;DHT22;42884;50.718;4.630;2024-03-08T12:41:48;19.10;99.90
23873;DHT22;42884;50.718;4.630;2024-03-08T12:44:17;19.30;99.90
23873;DHT22;42884;50.718;4.630;2024-03-08T12:46:44;19.20;99.90
23873;DHT22;42884;50.718;4.630;2024-03-08T12:49:10;19.70;99.90
23873;DHT22;42884;50.718;4.630;2024-03-08T12:51:38;19.90;99.90
23873;DHT22;42884;50.718;4.630;2024-03-08T12:54:05;20.00;99.90
23873;DHT22;42884;50.718;4.630;2024-03-08T12:56:34;19.80;99.90
23873;DHT22;42884;50.718;4.630;2024-03-08T12:59:00;20.10;99.90
23873;DHT22;42884;50.718;4.630;2024-03-08T13:01:27;20.50;99.90
23873;DHT22;42884;50.718;4.630;2024-03-08T13:03:53;20.90;99.90
23873;DHT22;42884;50.718;4.630;2024-03-08T13:06:20;21.30;99.90
23873;DHT22;42884;50.718;4.630;2024-03-08T13:08:50;20.60;99.90
23873;DHT22;42884;50.718;4.630;2024-03-08T13:11:17;20.60;99.90
23873;DHT22;42884;50.718;4.630;2024-03-08T13:13:45;21.00;99.90
23873;DHT22;42884;50.718;4.630;2024-03-08T13:16:11;20.70;99.90
23873;DHT22;42884;50.718;4.630;2024-03-08T13:18:40;20.90;99.90
23873;DHT22;42884;50.718;4.630;2024-03-08T13:21:07;20.80;99.90
23873;DHT22;42884;50.718;4.630;2024-03-08T13:23:35;21.40;99.90
23873;DHT22;42884;50.718;4.630;2024-03-08T13:26:06;21.60;99.90
23873;DHT22;42884;50.718;4.630;2024-03-08T13:28:32;21.60;98.90
23873;DHT22;42884;50.718;4.630;2024-03-08T13:31:03;21.00;98.20
23873;DHT22;42884;50.718;4.630;2024-03-08T13:33:32;20.80;98.70
23873;DHT22;42884;50.718;4.630;2024-03-08T13:36:02;20.90;98.60
23873;DHT22;42884;50.718;4.630;2024-03-08T13:38:28;20.70;98.40
23873;DHT22;42884;50.718;4.630;2024-03-08T13:40:54;20.50;98.60
23873;DHT22;42884;50.718;4.630;2024-03-08T13:43:20;20.10;99.70
23873;DHT22;42884;50.718;4.630;2024-03-08T13:45:46;20.30;98.30
23873;DHT22;42884;50.718;4.630;2024-03-08T13:48:11;19.80;99.10
23873;DHT22;42884;50.718;4.630;2024-03-08T13:50:38;20.30;98.50
23873;DHT22;42884;50.718;4.630;2024-03-08T13:53:05;20.70;99.90
23873;DHT22;42884;50.718;4.630;2024-03-08T13:55:30;21.00;98.20
23873;DHT22;42884;50.718;4.630;2024-03-08T13:57:57;20.60;97.50
23873;DHT22;42884;50.718;4.630;2024-03-08T14:00:23;20.20;98.10
23873;DHT22;42884;50.718;4.630;2024-03-08T14:02:51;20.60;99.90
23873;DHT22;42884;50.718;4.630;2024-03-08T14:05:16;20.70;97.50
23873;DHT22;42884;50.718;4.630;2024-03-08T14:07:45;21.00;98.30
23873;DHT22;42884;50.718;4.630;2024-03-08T14:10:14;21.10;97.90
23873;DHT22;42884;50.718;4.630;2024-03-08T14:12:40;21.50;97.00
23873;DHT22;42884;50.718;4.630;2024-03-08T14:15:08;21.50;97.80
23873;DHT22;42884;50.718;4.630;2024-03-08T14:17:35;20.90;97.10
23873;DHT22;42884;50.718;4.630;2024-03-08T14:20:01;20.90;97.10
23873;DHT22;42884;50.718;4.630;2024-03-08T14:22:27;20.60;97.20
23873;DHT22;42884;50.718;4.630;2024-03-08T14:24:53;20.90;97.40
23873;DHT22;42884;50.718;4.630;2024-03-08T14:27:21;20.50;97.20
23873;DHT22;42884;50.718;4.630;2024-03-08T14:30:08;19.90;97.90
23873;DHT22;42884;50.718;4.630;2024-03-08T14:32:39;20.50;98.00
23873;DHT22;42884;50.718;4.630;2024-03-08T14:35:07;20.60;98.30
23873;DHT22;42884;50.718;4.630;2024-03-08T14:37:39;20.40;97.70
23873;DHT22;42884;50.718;4.630;2024-03-08T14:44:28;19.70;98.50
23873;DHT22;42884;50.718;4.630;2024-03-08T14:47:15;18.90;99.40
23873;DHT22;42884;50.718;4.630;2024-03-08T14:49:41;18.70;99.00
23873;DHT22;42884;50.718;4.630;2024-03-08T14:56:31;17.60;98.80
23873;DHT22;42884;50.718;4.630;2024-03-08T14:59:01;17.00;99.90
23873;DHT22;42884;50.718;4.630;2024-03-08T15:01:27;16.70;99.90
23873;DHT22;42884;50.718;4.630;2024-03-08T15:03:57;16.70;99.90
23873;DHT22;42884;50.718;4.630;2024-03-08T15:06:34;16.50;99.90
23873;DHT22;42884;50.718;4.630;2024-03-08T15:09:02;16.20;99.90
23873;DHT22;42884;50.718;4.630;2024-03-08T15:11:37;16.20;99.90
23873;DHT22;42884;50.718;4.630;2024-03-08T15:14:05;16.00;99.90
23873;DHT22;42884;50.718;4.630;2024-03-08T15:16:38;15.60;99.90
23873;DHT22;42884;50.718;4.630;2024-03-08T15:19:08;15.60;99.90
23873;DHT22;42884;50.718;4.630;2024-03-08T15:21:34;15.40;99.90
23873;DHT22;42884;50.718;4.630;2024-03-08T15:24:00;15.30;99.90
23873;DHT22;42884;50.718;4.630;2024-03-08T15:26:28;15.40;99.90
23873;DHT22;42884;50.718;4.630;2024-03-08T15:28:56;15.30;99.90
23873;DHT22;42884;50.718;4.630;2024-03-08T15:31:22;15.40;99.90
23873;DHT22;42884;50.718;4.630;2024-03-08T15:33:50;15.30;99.90
23873;DHT22;42884;50.718;4.630;2024-03-08T15:36:37;15.10;99.90
23873;DHT22;42884;50.718;4.630;2024-03-08T15:39:04;15.10;99.90
23873;DHT22;42884;50.718;4.630;2024-03-08T15:41:35;15.20;99.90
23873;DHT22;42884;50.718;4.630;2024-03-08T15:44:01;15.20;99.90
23873;DHT22;42884;50.718;4.630;2024-03-08T15:46:27;15.30;99.90
23873;DHT22;42884;50.718;4.630;2024-03-08T15:48:53;15.40;99.90
23873;DHT22;42884;50.718;4.630;2024-03-08T15:51:19;15.30;99.90
23873;DHT22;42884;50.718;4.630;2024-03-08T15:53:45;15.30;99.90
23873;DHT22;42884;50.718;4.630;2024-03-08T15:56:19;15.10;99.90
23873;DHT22;42884;50.718;4.630;2024-03-08T15:58:48;15.10;99.90
23873;DHT22;42884;50.718;4.630;2024-03-08T16:01:14;15.00;99.90
23873;DHT22;42884;50.718;4.630;2024-03-08T16:03:43;15.00;99.90